createdAt,value
2019-03-06T00:01:37.519Z,9.43
2019-03-06T00:04:06.188Z,8.70
2019-03-06T00:06:34.590Z,7.97
2019-03-06T00:09:04.679Z,9.27
2019-03-06T00:11:34.775Z,8.37
2019-03-06T00:14:03.451Z,8.47
2019-03-06T00:16:31.930Z,20.43
2019-03-06T00:19:00.427Z,16.40
2019-03-06T00:21:29.115Z,9.90
2019-03-06T00:23:57.549Z,8.67
2019-03-06T00:26:26.032Z,8.20
2019-03-06T00:28:54.442Z,8.43
2019-03-06T00:31:22.868Z,9.70
2019-03-06T00:33:51.554Z,7.90
2019-03-06T00:36:24.570Z,8.60
2019-03-06T00:38:53.314Z,9.00
2019-03-06T00:41:36.698Z,8.63
2019-03-06T00:44:05.183Z,9.20
2019-03-06T00:46:33.663Z,8.40
2019-03-06T00:49:02.360Z,8.27
2019-03-06T00:51:30.860Z,8.73
2019-03-06T00:53:59.302Z,7.43
2019-03-06T00:56:27.794Z,8.47
2019-03-06T00:58:56.283Z,7.53
2019-03-06T01:01:25.059Z,8.13
2019-03-06T01:03:53.637Z,8.93
2019-03-06T01:06:22.047Z,9.37
2019-03-06T01:08:50.635Z,9.63
2019-03-06T01:11:19.141Z,9.30
2019-03-06T01:13:47.558Z,9.03
2019-03-06T01:16:16.039Z,9.43
2019-03-06T01:18:44.543Z,9.43
2019-03-06T01:21:13.314Z,8.90
2019-03-06T01:23:41.731Z,9.73
2019-03-06T01:26:10.472Z,10.10
2019-03-06T01:28:38.962Z,10.17
2019-03-06T01:31:07.442Z,9.50
2019-03-06T01:33:58.918Z,10.87
2019-03-06T01:36:49.519Z,10.60
2019-03-06T01:39:32.700Z,11.50
2019-03-06T01:42:23.646Z,12.27
2019-03-06T01:44:56.102Z,12.73
2019-03-06T01:47:24.594Z,12.00
2019-03-06T01:49:53.184Z,11.73
2019-03-06T01:52:21.622Z,12.17
2019-03-06T01:54:50.034Z,12.90
2019-03-06T01:57:18.626Z,13.10
2019-03-06T01:59:47.140Z,11.50
2019-03-06T02:02:15.674Z,12.33
2019-03-06T02:04:44.254Z,11.80
2019-03-06T02:07:12.943Z,12.33
2019-03-06T02:09:41.721Z,11.47
2019-03-06T02:12:10.841Z,11.90
2019-03-06T02:14:39.291Z,11.90
2019-03-06T02:17:07.783Z,11.30
2019-03-06T02:19:36.283Z,10.80
2019-03-06T02:22:05.075Z,10.30
2019-03-06T02:24:33.817Z,11.37
2019-03-06T02:27:02.319Z,10.80
2019-03-06T02:29:30.757Z,11.63
2019-03-06T02:31:59.173Z,10.23
2019-03-06T02:34:27.879Z,10.40
2019-03-06T02:36:56.383Z,10.80
2019-03-06T02:39:25.874Z,10.20
2019-03-06T02:41:54.359Z,10.67
2019-03-06T02:44:22.806Z,10.80
2019-03-06T02:46:51.315Z,10.90
2019-03-06T02:49:19.749Z,11.13
2019-03-06T02:51:48.548Z,11.20
2019-03-06T02:54:17.035Z,11.00
2019-03-06T02:56:46.880Z,10.57
2019-03-06T02:59:21.356Z,10.80
2019-03-06T03:02:18.123Z,11.10
2019-03-06T03:05:09.825Z,10.90
2019-03-06T03:07:38.237Z,9.37
2019-03-06T03:10:06.923Z,9.73
2019-03-06T03:12:35.446Z,11.20
2019-03-06T03:15:05.017Z,11.60
2019-03-06T03:17:33.780Z,12.63
2019-03-06T03:20:02.313Z,10.10
2019-03-06T03:22:30.888Z,10.10
2019-03-06T03:24:59.312Z,10.93
2019-03-06T03:27:27.828Z,11.30
2019-03-06T03:29:56.331Z,11.00
2019-03-06T03:32:25.792Z,12.17
2019-03-06T03:34:54.572Z,11.43
2019-03-06T03:37:23.001Z,12.13
2019-03-06T03:39:51.479Z,12.43
2019-03-06T03:42:19.979Z,11.20
2019-03-06T03:44:48.433Z,11.73
2019-03-06T03:47:16.946Z,14.20
2019-03-06T03:49:45.354Z,12.20
2019-03-06T03:52:13.793Z,13.73
2019-03-06T03:54:42.275Z,13.33
2019-03-06T03:57:11.120Z,13.60
2019-03-06T03:59:39.607Z,14.20
2019-03-06T04:02:08.099Z,13.47
2019-03-06T04:04:37.500Z,13.23
2019-03-06T04:07:05.997Z,13.73
2019-03-06T04:09:34.478Z,12.20
2019-03-06T04:12:02.958Z,12.80
2019-03-06T04:14:32.344Z,12.50
2019-03-06T04:17:00.873Z,13.47
2019-03-06T04:19:29.383Z,13.13
2019-03-06T04:21:57.872Z,13.70
2019-03-06T04:24:26.569Z,14.00
2019-03-06T04:26:55.068Z,18.07
2019-03-06T04:29:23.561Z,15.50
2019-03-06T04:31:52.055Z,13.90
2019-03-06T04:34:20.499Z,16.30
2019-03-06T04:36:49.247Z,16.57
2019-03-06T04:39:17.671Z,16.23
2019-03-06T04:41:46.166Z,17.40
2019-03-06T04:44:14.719Z,16.57
2019-03-06T04:46:43.226Z,16.70
2019-03-06T04:49:11.672Z,17.00
2019-03-06T04:51:40.101Z,14.90
2019-03-06T04:54:08.870Z,16.07
2019-03-06T04:56:37.689Z,14.67
2019-03-06T04:59:06.180Z,15.53
2019-03-06T05:01:34.610Z,18.30
2019-03-06T05:04:03.534Z,15.07
2019-03-06T05:06:31.951Z,15.50
2019-03-06T05:09:00.380Z,15.43
2019-03-06T05:11:30.762Z,16.57
2019-03-06T05:13:59.605Z,17.00
2019-03-06T05:16:43.146Z,15.93
2019-03-06T05:19:11.643Z,17.60
2019-03-06T05:21:40.066Z,15.67
2019-03-06T05:24:08.901Z,17.13
2019-03-06T05:26:38.661Z,17.20
2019-03-06T05:29:07.155Z,19.00
2019-03-06T05:31:35.583Z,19.93
2019-03-06T05:34:03.999Z,19.47
2019-03-06T05:36:42.073Z,19.87
2019-03-06T05:39:11.110Z,20.33
2019-03-06T05:41:39.787Z,20.27
2019-03-06T05:44:08.703Z,20.80
2019-03-06T05:46:37.198Z,20.93
2019-03-06T05:49:05.787Z,20.43
2019-03-06T05:51:34.309Z,20.30
2019-03-06T05:54:02.723Z,21.30
2019-03-06T05:56:31.142Z,20.47
2019-03-06T05:58:59.578Z,20.23
2019-03-06T06:01:28.062Z,21.80
2019-03-06T06:03:56.478Z,20.77
2019-03-06T06:06:24.996Z,22.47
2019-03-06T06:08:53.478Z,20.97
2019-03-06T06:11:21.965Z,21.90
2019-03-06T06:13:50.400Z,21.50
2019-03-06T06:16:18.816Z,20.73
2019-03-06T06:18:47.298Z,20.10
2019-03-06T06:21:34.960Z,19.63
2019-03-06T06:24:07.911Z,20.37
2019-03-06T06:26:36.343Z,19.77
2019-03-06T06:29:04.833Z,19.67
2019-03-06T06:31:33.335Z,21.10
2019-03-06T06:34:01.772Z,19.17
2019-03-06T06:36:30.541Z,19.37
2019-03-06T06:38:59.283Z,21.17
2019-03-06T06:41:27.715Z,20.30
2019-03-06T06:43:56.133Z,20.50
2019-03-06T06:46:24.636Z,20.93
2019-03-06T06:48:53.190Z,20.70
2019-03-06T06:51:37.699Z,20.50
2019-03-06T06:54:12.951Z,22.40
2019-03-06T06:57:00.894Z,21.87
2019-03-06T06:59:35.411Z,22.13
2019-03-06T07:02:40.672Z,21.40
2019-03-06T07:05:29.610Z,19.90
2019-03-06T07:08:20.218Z,22.87
2019-03-06T07:11:17.354Z,19.73
2019-03-06T07:14:23.438Z,18.30
2019-03-06T07:17:22.876Z,18.73
2019-03-06T07:20:02.319Z,20.07
2019-03-06T07:22:53.197Z,17.13
2019-03-06T07:25:47.155Z,16.83
2019-03-06T07:28:35.024Z,17.50
2019-03-06T07:31:16.328Z,18.10
2019-03-06T07:34:15.936Z,18.10
2019-03-06T07:36:47.611Z,15.37
2019-03-06T07:39:22.175Z,15.07
2019-03-06T07:42:09.826Z,15.60
2019-03-06T07:44:49.692Z,17.00
2019-03-06T07:47:36.335Z,13.87
2019-03-06T07:50:31.375Z,15.93
2019-03-06T07:53:32.671Z,16.60
2019-03-06T07:56:17.487Z,14.90
2019-03-06T07:58:50.469Z,14.20
2019-03-06T08:01:19.283Z,14.80
2019-03-06T08:04:01.118Z,15.40
2019-03-06T08:06:29.897Z,14.47
2019-03-06T08:08:58.382Z,15.10
2019-03-06T08:11:55.791Z,15.70
2019-03-06T08:14:46.222Z,15.13
2019-03-06T08:17:26.229Z,14.60
2019-03-06T08:20:13.006Z,16.40
2019-03-06T08:23:06.768Z,15.60
2019-03-06T08:25:43.788Z,16.10
2019-03-06T08:28:13.548Z,11.50
2019-03-06T08:30:45.284Z,12.60
2019-03-06T08:33:18.224Z,10.13
2019-03-06T08:35:43.963Z,11.70
2019-03-06T08:38:12.451Z,11.37
2019-03-06T08:40:40.919Z,10.97
2019-03-06T08:43:09.411Z,10.60
2019-03-06T08:45:54.503Z,11.17
2019-03-06T08:48:29.328Z,9.93
2019-03-06T08:51:19.981Z,11.80
2019-03-06T08:54:04.855Z,11.33
2019-03-06T08:56:40.287Z,10.00
2019-03-06T08:59:27.919Z,10.43
2019-03-06T09:02:02.699Z,9.87
2019-03-06T09:04:51.251Z,8.57
2019-03-06T09:07:37.827Z,8.93
2019-03-06T09:10:24.768Z,9.90
2019-03-06T09:13:24.720Z,10.17
2019-03-06T09:16:21.169Z,9.30
2019-03-06T09:19:11.827Z,8.47
2019-03-06T09:21:54.563Z,8.77
2019-03-06T09:24:42.251Z,9.20
2019-03-06T09:27:19.893Z,8.23
2019-03-06T09:29:57.097Z,8.30
2019-03-06T09:32:54.094Z,8.70
2019-03-06T09:35:37.344Z,7.70
2019-03-06T09:38:24.028Z,6.53
2019-03-06T09:41:11.762Z,7.90
2019-03-06T09:44:08.793Z,8.17
2019-03-06T09:46:55.804Z,7.07
2019-03-06T09:49:49.689Z,7.27
2019-03-06T09:52:50.795Z,6.80
2019-03-06T09:55:38.441Z,6.47
2019-03-06T09:58:12.681Z,6.10
2019-03-06T10:01:18.486Z,7.20
2019-03-06T10:04:09.299Z,6.77
2019-03-06T10:06:55.339Z,5.53
2019-03-06T10:09:35.140Z,6.50
2019-03-06T10:12:10.570Z,5.77
2019-03-06T10:14:58.271Z,6.87
2019-03-06T10:17:31.803Z,7.20
2019-03-06T10:20:03.895Z,5.80
2019-03-06T10:22:32.542Z,5.90
2019-03-06T10:25:01.261Z,6.13
2019-03-06T10:27:29.966Z,6.00
2019-03-06T10:29:58.440Z,5.40
2019-03-06T10:32:26.844Z,5.33
2019-03-06T10:34:55.281Z,4.87
2019-03-06T10:37:23.816Z,4.80
2019-03-06T10:39:53.502Z,5.10
2019-03-06T10:42:22.070Z,5.40
2019-03-06T10:44:50.557Z,5.03
2019-03-06T10:47:19.462Z,4.53
2019-03-06T10:49:48.028Z,4.37
2019-03-06T10:52:16.445Z,4.20
2019-03-06T10:54:45.082Z,4.50
2019-03-06T10:57:13.695Z,4.20
2019-03-06T10:59:42.733Z,3.67
2019-03-06T11:02:11.293Z,3.80
2019-03-06T11:04:48.475Z,3.27
2019-03-06T11:07:17.069Z,3.43
2019-03-06T11:09:45.555Z,3.87
2019-03-06T11:12:14.047Z,3.50
2019-03-06T11:14:44.521Z,3.57
2019-03-06T11:17:12.991Z,3.30
2019-03-06T11:19:42.951Z,3.27
2019-03-06T11:22:11.443Z,3.10
2019-03-06T11:24:40.863Z,3.57
2019-03-06T11:27:09.583Z,3.50
2019-03-06T11:29:39.150Z,3.27
2019-03-06T11:32:07.747Z,3.63
2019-03-06T11:34:36.350Z,4.00
2019-03-06T11:37:05.244Z,3.90
2019-03-06T11:39:33.882Z,3.47
2019-03-06T11:42:02.642Z,3.77
2019-03-06T11:44:31.054Z,3.23
2019-03-06T11:46:59.536Z,3.43
2019-03-06T11:49:28.036Z,3.47
2019-03-06T11:51:56.703Z,3.57
2019-03-06T11:54:25.224Z,3.37
2019-03-06T11:56:54.051Z,4.10
2019-03-06T11:59:22.626Z,9.93
2019-03-06T12:01:51.099Z,3.70
2019-03-06T12:04:19.979Z,5.00
2019-03-06T12:06:48.470Z,4.10
2019-03-06T12:09:29.579Z,4.17
2019-03-06T12:11:58.063Z,4.20
2019-03-06T12:14:26.559Z,3.90
2019-03-06T12:16:56.083Z,4.13
2019-03-06T12:19:25.706Z,3.03
2019-03-06T12:21:54.450Z,3.87
2019-03-06T12:24:22.968Z,3.20
2019-03-06T12:26:51.456Z,7.70
2019-03-06T12:29:19.947Z,3.50
2019-03-06T12:31:49.531Z,3.33
2019-03-06T16:41:01.850Z,2.70
2019-03-06T16:43:30.440Z,2.40
2019-03-06T16:45:58.863Z,2.40
2019-03-06T16:48:27.352Z,2.47
2019-03-06T16:50:56.240Z,5.83
2019-03-06T16:53:24.727Z,5.67
2019-03-06T16:55:53.223Z,9.83
2019-03-06T16:58:21.980Z,12.40
2019-03-06T17:00:52.528Z,12.67
2019-03-06T17:03:21.296Z,13.53
2019-03-06T17:05:50.167Z,14.50
2019-03-06T17:08:19.043Z,12.47
2019-03-06T17:10:47.535Z,11.12
2019-03-06T17:13:16.025Z,8.80
2019-03-06T17:15:44.615Z,7.63
2019-03-06T17:18:13.565Z,17.67
2019-03-06T17:20:42.072Z,8.80
2019-03-06T17:23:10.647Z,6.07
2019-03-06T17:25:39.139Z,4.80
2019-03-06T17:28:07.755Z,4.70
2019-03-06T17:30:36.920Z,5.37
2019-03-06T17:33:06.804Z,4.30
2019-03-06T17:35:35.392Z,6.37
2019-03-06T17:38:05.568Z,3.90
2019-03-06T17:40:34.123Z,3.90
2019-03-06T17:43:02.909Z,3.67
2019-03-06T17:45:31.401Z,3.07
2019-03-06T17:48:00.261Z,4.70
2019-03-06T17:50:29.930Z,19.00
2019-03-06T17:52:58.524Z,5.47
2019-03-06T17:55:27.003Z,5.40
2019-03-06T17:57:59.052Z,4.80
2019-03-06T18:00:37.268Z,5.13
2019-03-06T18:03:06.219Z,3.80
2019-03-06T18:05:34.730Z,4.70
2019-03-06T18:08:03.236Z,4.60
2019-03-06T18:10:31.724Z,5.43
2019-03-06T18:13:00.198Z,9.40
2019-03-06T18:15:28.976Z,10.93
2019-03-06T18:17:57.474Z,10.73
2019-03-06T18:20:26.325Z,9.67
2019-03-06T18:22:55.347Z,9.73
2019-03-06T18:25:24.040Z,13.93
2019-03-06T18:27:52.613Z,18.07
2019-03-06T18:30:21.220Z,19.00
2019-03-06T18:32:49.870Z,16.67
2019-03-06T18:35:18.508Z,5.83
2019-03-06T18:37:47.060Z,6.80
2019-03-06T18:40:16.174Z,8.17
2019-03-06T18:42:44.637Z,5.33
2019-03-06T18:45:13.968Z,6.17
2019-03-06T18:47:42.713Z,9.47
2019-03-06T18:50:12.087Z,11.40
2019-03-06T18:52:40.591Z,13.97
2019-03-06T18:55:09.113Z,18.60
2019-03-06T18:57:39.203Z,19.50
2019-03-06T19:00:09.271Z,23.10
2019-03-06T19:02:38.135Z,22.80
2019-03-06T19:05:06.653Z,19.60
2019-03-06T19:07:35.339Z,23.60
2019-03-06T19:10:04.709Z,46.10
2019-03-06T19:12:33.270Z,108.43
2019-03-06T19:15:01.767Z,16.50
2019-03-06T19:17:32.378Z,9.10
2019-03-06T19:20:00.913Z,14.37
2019-03-06T19:22:31.168Z,16.20
2019-03-06T19:25:00.419Z,9.50
2019-03-06T19:27:28.996Z,7.63
2019-03-06T19:29:57.478Z,6.70
2019-03-06T19:32:26.162Z,6.60
2019-03-06T19:34:54.651Z,5.73
2019-03-06T19:37:23.155Z,5.50
2019-03-06T19:39:51.570Z,5.60
2019-03-06T19:42:20.070Z,6.37
2019-03-06T19:44:49.608Z,6.03
2019-03-06T19:47:18.471Z,11.40
2019-03-06T19:49:47.312Z,7.17
2019-03-06T19:52:15.783Z,6.80
2019-03-06T19:54:44.256Z,7.47
2019-03-06T19:57:13.152Z,5.80
2019-03-06T19:59:42.709Z,7.27
2019-03-06T20:02:11.268Z,5.57
2019-03-06T20:04:39.783Z,6.03
2019-03-06T20:07:08.351Z,6.83
2019-03-06T20:09:36.842Z,10.83
2019-03-06T20:12:05.426Z,8.80
2019-03-06T20:14:33.905Z,6.80
2019-03-06T20:17:02.379Z,6.87
2019-03-06T20:19:31.430Z,5.20
2019-03-06T20:22:02.033Z,7.17
2019-03-06T20:24:31.027Z,5.60
2019-03-06T20:26:59.814Z,10.77
2019-03-06T20:29:29.405Z,10.87
2019-03-06T20:31:57.999Z,3.90
2019-03-06T20:34:28.281Z,3.23
2019-03-06T20:36:56.781Z,3.80
2019-03-06T20:39:25.266Z,4.47
2019-03-06T20:41:53.770Z,4.50
2019-03-06T20:44:22.389Z,4.03
2019-03-06T20:46:50.924Z,4.03
2019-03-06T20:49:19.427Z,21.47
2019-03-06T20:51:48.304Z,5.43
2019-03-06T20:54:16.735Z,5.00
2019-03-06T20:56:45.390Z,5.47
2019-03-06T20:59:13.890Z,4.33
2019-03-06T21:01:42.397Z,5.77
2019-03-06T21:04:12.009Z,10.23
2019-03-06T21:06:40.695Z,21.53
2019-03-06T21:09:09.199Z,7.17
2019-03-06T21:11:38.179Z,7.03
2019-03-06T21:14:06.739Z,8.43
2019-03-06T21:16:35.230Z,10.40
2019-03-06T21:19:03.718Z,7.20
2019-03-06T21:21:32.212Z,5.13
2019-03-06T21:24:00.755Z,5.80
2019-03-06T21:26:29.299Z,8.33
2019-03-06T21:28:58.168Z,7.43
2019-03-06T21:31:26.670Z,25.83
2019-03-06T21:33:55.268Z,14.50
2019-03-06T21:36:23.766Z,5.70
2019-03-06T21:38:52.189Z,5.60
2019-03-06T21:41:21.072Z,4.10
2019-03-06T21:43:49.563Z,3.83
2019-03-06T21:46:18.589Z,4.80
2019-03-06T21:48:47.109Z,3.90
2019-03-06T21:51:15.964Z,4.17
2019-03-06T21:53:44.646Z,4.33
2019-03-06T21:56:13.184Z,4.10
2019-03-06T21:58:41.665Z,4.10
2019-03-06T22:01:10.502Z,4.37
2019-03-06T22:03:39.024Z,4.47
2019-03-06T22:06:07.520Z,4.40
2019-03-06T22:08:35.957Z,5.90
2019-03-06T22:11:04.456Z,7.90
2019-03-06T22:13:32.855Z,4.40
2019-03-06T22:16:01.276Z,3.87
2019-03-06T22:18:29.753Z,4.17
2019-03-06T22:20:58.212Z,4.00
2019-03-06T22:23:26.689Z,3.70
2019-03-06T22:25:55.210Z,3.80
2019-03-06T22:28:23.608Z,4.70
2019-03-06T22:30:53.501Z,3.83
2019-03-06T22:33:25.116Z,5.10
2019-03-06T22:35:53.245Z,5.10
2019-03-06T22:38:21.727Z,4.10
2019-03-06T22:40:50.138Z,5.53
2019-03-06T22:43:18.622Z,3.67
2019-03-06T22:45:47.114Z,4.10
2019-03-06T22:48:16.158Z,4.23
2019-03-06T22:50:44.647Z,3.87
2019-03-06T22:53:14.514Z,3.80
2019-03-06T22:55:43.012Z,3.70
2019-03-06T22:58:11.492Z,5.07
2019-03-06T23:00:43.906Z,3.70
2019-03-06T23:03:14.279Z,3.70
2019-03-06T23:05:42.839Z,3.53
2019-03-06T23:08:11.947Z,4.10
2019-03-06T23:10:40.763Z,4.00
2019-03-06T23:13:09.244Z,3.30
2019-03-06T23:15:37.795Z,3.90
2019-03-06T23:18:06.282Z,3.83
2019-03-06T23:20:34.759Z,3.73
2019-03-06T23:23:03.175Z,4.30
2019-03-06T23:25:31.651Z,3.77
2019-03-06T23:28:00.141Z,4.43
2019-03-06T23:30:28.907Z,4.80
2019-03-06T23:32:57.368Z,5.17
2019-03-06T23:35:25.851Z,4.33
2019-03-06T23:37:54.383Z,3.70
2019-03-06T23:40:22.900Z,4.10
2019-03-06T23:42:51.718Z,4.37
2019-03-06T23:45:20.731Z,5.10
2019-03-06T23:47:49.194Z,5.97
2019-03-06T23:50:17.594Z,5.07
2019-03-06T23:53:06.269Z,5.20
2019-03-06T23:55:34.769Z,5.40
2019-03-06T23:58:03.246Z,5.30
